Cardinham, United Kingdom

11:56 PM BST on August 20, 2014 (GMT +0100)
farmland | Change Station
CLOSE
Current Station
Personal Weather Station
Location: Saint Breward,
Elevation: 476 ft
Nearby Weather Stations

Elev 476 ft 50.57 °N, 4.71 °W | Updated 3 seconds ago

Partly Cloudy
Partly Cloudy
45.1 °F
Feels Like 45 °F
N
0.0
Wind Variable Wind from ENE
Gusts 0.0 mph

Today
High -- | Low -- °F
--% Chance of Precip.
Yesterday
High -- | Low -- °F
Precip. -- in
6:14 AM 8:28 PM
Waning Crescent, 18% visible
Pressure 30.09 in
Visibility 6.2 miles
Clouds Few 4500 ft
Windchill 45 °F
Dew Point 44 °F
Humidity 97%
Rainfall 0.18 in
Snow Depth Not available.
UV 0.0 out of 12
Pollen Not available.
Air Quality Not available.
Flu Activity Not available.
METAR EGTE 202220Z 09004KT 060V120 9999 FEW045 09/05 Q1019

More Conditions Fewer Conditions

Pressure 30.09 in
Visibility 6.2 miles
Clouds Few 4500 ft
Windchill 45 °F
Dew Point 44 °F
Humidity 97%
Rainfall 0.18 in
Snow Depth Not available.
UV 0.0 out of 12
Pollen Not available.
Air Quality Not available.
Flu Activity Not available.
METAR EGTE 202220Z 09004KT 060V120 9999 FEW045 09/05 Q1019

More Conditions Fewer Conditions

10-Day Weather Forecast

Almanac

Astronomy

Aug. 20, 2014 Rise Set
Actual Time 6:14 AM BST 8:28 PM BST
Civil Twilight 5:38 AM BST 9:04 PM BST
Nautical Twilight 4:53 AM BST 9:48 PM BST
Astronomical Twilight 4:02 AM BST 10:39 PM BST
Moon 1:31 AM BST 5:13 PM BST
Length of Visible Light 15h 25m
Length of Day
14h 14m
Tomorrow will be 3m 32s shorter.
Waning Crescent, 18% of the Moon is Illuminated
Today
Waning Crescent
Aug 25
New
Sep 2
First Quarter
Sep 8
Full
Sep 15
Last Quarter

Today's Extremes

Country Highs Country Lows

Community

WunderPhotos

Upload Photos

1,745,791 photos uploaded!

Nearby

Snow Depth

Not available.

Earthquake Activity

City Distance Mag. Time & Date
No recent earthquake activity has been reported nearby.
Minimum magnitude displayed is 2.5.

Coastal Water Temperatures

Place Temperature
No Stations Reporting

Nearby Weather Stations